Terminal Aerodrome Forecast
Issued by NWS Salt Lake City, UT

Home | Current Version | Previous Version | Text Only | Print | Product List | Glossary On
Versions: 1 2 3 4 5 6 7 8 9 10 11 12 13 14 15 16 17 18 19 20 21 22 23 24 25 26 27 28 29 30
111
FTUS45 KSLC 170540
TAFCDC
TAF
KCDC 170540Z 1706/1806 36012KT P6SM BKN015 OVC030
     FM170900 01010KT P6SM BKN030 OVC050
     FM171400 02010KT P6SM SCT020 BKN080
     FM180200 35007KT P6SM SCT120=

USA.gov is the U.S. government's official web portal to all federal, state and local government web resources and services.